Sosnovy Bor, Russia
Current Conditions -  °F | °C
As of 1:50 PM on Sunday 23 Nov 2014 (Local Time) from EFLP Reporting Station
Overcast Overcast  
Wind Chill: 28°   Ceiling: 300
Heat Index: 28°   Visibility: 6mi
Dew Point: 28°   Wind: 1mph
Humidity: 100%   Direction: 220°SW
Pressure: 30.5"   Gusts: NA
Location:  60.53°N, 28.68°E
Report Text: EFLP 231050Z AUTO 22001KT 9999 OVC003 M02/M02 Q1033
Loading
Personal Weather Stations






























Interactive Weather Map New forecast layout! Learn more

10-Day Weather Forecast

Advertisements
Track Severe Weather on mobile